createdAt,value
2023-02-04T00:00:28.926Z,1023.02
2023-02-04T00:01:28.642Z,1023.03
2023-02-04T00:02:28.676Z,1023.02
2023-02-04T00:03:28.618Z,1023.03
2023-02-04T00:04:28.611Z,1023.07
2023-02-04T00:05:28.624Z,1023.07
2023-02-04T00:06:28.593Z,1023.08
2023-02-04T00:07:28.593Z,1023.08
2023-02-04T00:08:28.578Z,1023.16
2023-02-04T00:09:28.575Z,1023.14
2023-02-04T00:10:28.763Z,1023.17
2023-02-04T00:11:28.560Z,1023.21
2023-02-04T00:12:28.547Z,1023.18
2023-02-04T00:13:28.537Z,1023.21
2023-02-04T00:14:28.535Z,1023.23
2023-02-04T00:15:28.523Z,1023.23
2023-02-04T00:16:28.538Z,1023.21
2023-02-04T00:17:28.506Z,1023.18
2023-02-04T00:18:28.495Z,1023.18
2023-02-04T00:19:28.499Z,1023.16
2023-02-04T00:20:28.897Z,1023.17
2023-02-04T00:21:28.478Z,1023.21
2023-02-04T00:22:28.468Z,1023.24
2023-02-04T00:23:28.460Z,1023.29
2023-02-04T00:24:28.454Z,1023.35
2023-02-04T00:25:28.451Z,1023.37
2023-02-04T00:26:28.432Z,1023.35
2023-02-04T00:27:28.428Z,1023.36
2023-02-04T00:28:28.418Z,1023.37
2023-02-04T00:29:28.414Z,1023.39
2023-02-04T00:30:28.629Z,1023.36
2023-02-04T00:31:28.494Z,1023.40
2023-02-04T00:32:28.405Z,1023.36
2023-02-04T00:33:28.441Z,1023.40
2023-02-04T00:34:28.392Z,1023.42
2023-02-04T00:35:28.363Z,1023.41
2023-02-04T00:36:28.366Z,1023.39
2023-02-04T00:37:28.352Z,1023.41
2023-02-04T00:38:28.349Z,1023.41
2023-02-04T00:39:28.348Z,1023.41
2023-02-04T00:40:28.665Z,1023.40
2023-02-04T00:41:28.325Z,1023.38
2023-02-04T00:42:28.325Z,1023.41
2023-02-04T00:43:28.310Z,1023.41
2023-02-04T00:44:28.296Z,1023.50
2023-02-04T00:45:28.301Z,1023.48
2023-02-04T00:46:28.282Z,1023.49
2023-02-04T00:47:28.280Z,1023.56
2023-02-04T00:48:28.275Z,1023.57
2023-02-04T00:49:28.262Z,1023.57
2023-02-04T00:50:28.589Z,1023.64
2023-02-04T00:51:28.254Z,1023.66
2023-02-04T00:52:28.238Z,1023.65
2023-02-04T00:53:28.235Z,1023.61
2023-02-04T00:54:28.228Z,1023.59
2023-02-04T00:55:28.228Z,1023.64
2023-02-04T00:56:28.212Z,1023.65
2023-02-04T00:57:28.200Z,1023.61
2023-02-04T00:58:28.195Z,1023.61
2023-02-04T00:59:28.188Z,1023.66
2023-02-04T01:00:28.403Z,1023.59
2023-02-04T01:01:28.194Z,1023.61
2023-02-04T01:02:28.210Z,1023.65
2023-02-04T01:03:28.159Z,1023.65
2023-02-04T01:04:28.148Z,1023.75
2023-02-04T01:05:28.139Z,1023.71
2023-02-04T01:06:28.138Z,1023.70
2023-02-04T01:07:28.134Z,1023.74
2023-02-04T01:08:28.120Z,1023.72
2023-02-04T01:09:28.123Z,1023.70
2023-02-04T01:10:28.337Z,1023.74
2023-02-04T01:11:28.088Z,1023.70
2023-02-04T01:12:28.091Z,1023.74
2023-02-04T01:13:28.082Z,1023.73
2023-02-04T01:14:28.072Z,1023.72
2023-02-04T01:15:28.066Z,1023.75
2023-02-04T01:16:28.064Z,1023.74
2023-02-04T01:17:28.044Z,1023.75
2023-02-04T01:18:28.043Z,1023.78
2023-02-04T01:19:28.034Z,1023.77
2023-02-04T01:20:28.248Z,1023.80
2023-02-04T01:21:28.036Z,1023.82
2023-02-04T01:22:28.022Z,1023.86
2023-02-04T01:23:28.015Z,1023.82
2023-02-04T01:24:27.995Z,1023.81
2023-02-04T01:25:27.993Z,1023.78
2023-02-04T01:26:27.974Z,1023.80
2023-02-04T01:27:27.974Z,1023.89
2023-02-04T01:28:27.966Z,1023.89
2023-02-04T01:29:27.970Z,1023.89
2023-02-04T01:30:28.036Z,1023.88
2023-02-04T01:31:27.948Z,1023.91
2023-02-04T01:32:27.942Z,1023.96
2023-02-04T01:33:27.932Z,1023.94
2023-02-04T01:34:27.914Z,1023.96
2023-02-04T01:35:27.915Z,1023.95
2023-02-04T01:36:27.902Z,1023.97
2023-02-04T01:37:27.896Z,1023.92
2023-02-04T01:38:27.886Z,1023.98
2023-02-04T01:39:27.887Z,1023.96
2023-02-04T01:40:28.077Z,1023.95
2023-02-04T01:41:27.870Z,1024.02
2023-02-04T01:42:27.860Z,1023.99
2023-02-04T01:43:27.858Z,1023.97
2023-02-04T01:44:27.841Z,1023.98
2023-02-04T01:45:27.836Z,1024.04
2023-02-04T01:46:27.824Z,1024.02
2023-02-04T01:47:27.819Z,1024.00
2023-02-04T01:48:27.813Z,1024.02
2023-02-04T01:49:27.801Z,1024.01
2023-02-04T01:50:27.806Z,1024.07
2023-02-04T01:51:27.781Z,1024.10
2023-02-04T01:52:27.788Z,1024.05
2023-02-04T01:53:27.765Z,1024.11
2023-02-04T01:54:27.768Z,1024.12
2023-02-04T01:55:27.754Z,1024.11
2023-02-04T01:56:27.759Z,1024.10
2023-02-04T01:57:27.745Z,1024.11
2023-02-04T01:58:27.727Z,1024.09
2023-02-04T01:59:27.728Z,1024.11
2023-02-04T02:00:27.892Z,1024.16
2023-02-04T02:01:27.726Z,1024.16
2023-02-04T02:02:27.719Z,1024.15
2023-02-04T02:03:27.695Z,1024.20
2023-02-04T02:04:27.684Z,1024.19
2023-02-04T02:05:27.676Z,1024.17
2023-02-04T02:06:27.674Z,1024.23
2023-02-04T02:07:27.655Z,1024.22
2023-02-04T02:08:27.652Z,1024.24
2023-02-04T02:09:27.658Z,1024.24
2023-02-04T02:10:27.670Z,1024.24
2023-02-04T02:11:27.645Z,1024.26
2023-02-04T02:12:27.622Z,1024.31
2023-02-04T02:13:27.608Z,1024.32
2023-02-04T02:14:27.616Z,1024.36
2023-02-04T02:15:27.621Z,1024.32
2023-02-04T02:16:27.639Z,1024.36
2023-02-04T02:17:27.579Z,1024.36
2023-02-04T02:18:27.572Z,1024.37
2023-02-04T02:19:27.568Z,1024.37
2023-02-04T02:20:27.556Z,1024.34
2023-02-04T02:21:27.573Z,1024.40
2023-02-04T02:22:27.554Z,1024.40
2023-02-04T02:23:27.525Z,1024.39
2023-02-04T02:24:27.534Z,1024.39
2023-02-04T02:25:27.525Z,1024.35
2023-02-04T02:26:27.513Z,1024.42
2023-02-04T02:27:27.506Z,1024.37
2023-02-04T02:28:27.512Z,1024.39
2023-02-04T02:29:27.494Z,1024.44
2023-02-04T02:30:27.492Z,1024.44
2023-02-04T02:31:27.573Z,1024.46
2023-02-04T02:32:27.469Z,1024.49
2023-02-04T02:33:27.460Z,1024.48
2023-02-04T02:34:27.453Z,1024.51
2023-02-04T02:35:27.440Z,1024.50
2023-02-04T02:36:27.431Z,1024.52
2023-02-04T02:37:27.427Z,1024.51
2023-02-04T02:38:27.421Z,1024.49
2023-02-04T02:39:27.403Z,1024.47
2023-02-04T02:40:27.424Z,1024.48
2023-02-04T02:41:27.400Z,1024.50
2023-02-04T02:42:27.385Z,1024.50
2023-02-04T02:43:27.372Z,1024.56
2023-02-04T02:44:27.367Z,1024.55
2023-02-04T02:45:27.373Z,1024.57
2023-02-04T02:46:27.396Z,1024.54
2023-02-04T02:47:27.345Z,1024.52
2023-02-04T02:48:27.336Z,1024.53
2023-02-04T02:49:27.327Z,1024.54
2023-02-04T02:50:27.327Z,1024.55
2023-02-04T02:51:27.317Z,1024.53
2023-02-04T02:52:27.301Z,1024.60
2023-02-04T02:53:27.290Z,1024.60
2023-02-04T02:54:27.292Z,1024.60
2023-02-04T02:55:27.276Z,1024.59
2023-02-04T02:56:27.265Z,1024.55
2023-02-04T02:57:27.254Z,1024.58
2023-02-04T02:58:27.250Z,1024.59
2023-02-04T02:59:27.247Z,1024.58
2023-02-04T03:00:27.239Z,1024.58
2023-02-04T03:01:27.332Z,1024.60
2023-02-04T03:02:27.236Z,1024.62
2023-02-04T03:03:27.214Z,1024.62
2023-02-04T03:04:27.198Z,1024.68
2023-02-04T03:05:27.212Z,1024.66
2023-02-04T03:06:27.191Z,1024.62
2023-02-04T03:07:27.185Z,1024.63
2023-02-04T03:08:27.171Z,1024.68
2023-02-04T03:09:27.164Z,1024.69
2023-02-04T03:10:27.176Z,1024.72
2023-02-04T03:11:27.147Z,1024.71
2023-02-04T03:12:27.135Z,1024.70
2023-02-04T03:13:27.138Z,1024.71
2023-02-04T03:14:27.116Z,1024.78
2023-02-04T03:15:27.234Z,1024.82
2023-02-04T03:16:27.105Z,1024.84
2023-02-04T03:17:27.096Z,1024.88
2023-02-04T03:18:27.094Z,1024.86
2023-02-04T03:19:27.082Z,1024.88
2023-02-04T03:20:27.077Z,1024.91
2023-02-04T03:21:27.075Z,1024.89
2023-02-04T03:22:27.066Z,1024.92
2023-02-04T03:23:27.056Z,1024.90
2023-02-04T03:24:27.049Z,1024.88
2023-02-04T03:25:27.037Z,1024.85
2023-02-04T03:26:27.035Z,1024.90
2023-02-04T03:27:27.025Z,1024.87
2023-02-04T03:28:27.026Z,1024.89
2023-02-04T03:29:28.448Z,1024.89
2023-02-04T03:30:27.002Z,1024.84
2023-02-04T03:31:27.103Z,1024.87
2023-02-04T03:32:26.995Z,1024.87
2023-02-04T03:33:27.074Z,1024.86
2023-02-04T03:34:26.974Z,1024.90
2023-02-04T03:35:26.977Z,1024.88
2023-02-04T03:36:26.960Z,1024.91
2023-02-04T03:37:26.949Z,1024.92
2023-02-04T03:38:26.956Z,1024.88
2023-02-04T03:39:26.935Z,1024.95
2023-02-04T03:40:26.922Z,1024.91
2023-02-04T03:41:26.917Z,1024.96
2023-02-04T03:42:26.914Z,1024.96
2023-02-04T03:43:26.999Z,1024.97
2023-02-04T03:44:26.909Z,1024.96
2023-02-04T03:45:28.530Z,1025.02
2023-02-04T03:46:26.922Z,1025.05
2023-02-04T03:47:26.871Z,1025.01
2023-02-04T03:48:26.875Z,1025.05
2023-02-04T03:49:26.862Z,1025.04
2023-02-04T03:50:26.844Z,1025.03
2023-02-04T03:51:26.836Z,1025.01
2023-02-04T03:52:26.840Z,1025.00
2023-02-04T03:53:26.819Z,1024.98
2023-02-04T03:54:26.818Z,1025.02
2023-02-04T03:55:26.801Z,1025.03
2023-02-04T03:56:26.810Z,1025.06
2023-02-04T03:57:26.786Z,1025.06
2023-02-04T03:58:26.783Z,1025.08
2023-02-04T03:59:26.776Z,1025.11
2023-02-04T04:00:26.765Z,1025.09
2023-02-04T04:01:26.796Z,1025.09
2023-02-04T04:02:26.809Z,1025.15
2023-02-04T04:03:26.751Z,1025.15
2023-02-04T04:04:26.739Z,1025.15
2023-02-04T04:05:26.736Z,1025.20
2023-02-04T04:06:26.723Z,1025.18
2023-02-04T04:07:26.729Z,1025.15
2023-02-04T04:08:26.715Z,1025.15
2023-02-04T04:09:26.709Z,1025.14
2023-02-04T04:10:26.689Z,1025.12
2023-02-04T04:11:26.676Z,1025.16
2023-02-04T04:12:26.693Z,1025.18
2023-02-04T04:13:26.670Z,1025.18
2023-02-04T04:14:26.653Z,1025.14
2023-02-04T04:15:26.649Z,1025.13
2023-02-04T04:16:26.638Z,1025.16
2023-02-04T04:17:26.635Z,1025.18
2023-02-04T04:18:26.623Z,1025.13
2023-02-04T04:19:26.620Z,1025.19
2023-02-04T04:20:26.614Z,1025.19
2023-02-04T04:21:26.599Z,1025.21
2023-02-04T04:22:26.622Z,1025.27
2023-02-04T04:23:26.576Z,1025.23
2023-02-04T04:24:26.578Z,1025.25
2023-02-04T04:25:26.570Z,1025.25
2023-02-04T04:26:26.556Z,1025.25
2023-02-04T04:27:26.547Z,1025.19
2023-02-04T04:28:26.539Z,1025.18
2023-02-04T04:29:26.538Z,1025.11
2023-02-04T04:30:26.528Z,1025.18
2023-02-04T04:31:26.636Z,1025.14
2023-02-04T04:32:26.527Z,1025.20
2023-02-04T04:33:26.499Z,1025.26
2023-02-04T04:34:26.502Z,1025.24
2023-02-04T04:35:26.482Z,1025.27
2023-02-04T04:36:26.477Z,1025.26
2023-02-04T04:37:26.465Z,1025.25
2023-02-04T04:38:26.449Z,1025.26
2023-02-04T04:39:26.445Z,1025.27
2023-02-04T04:40:26.440Z,1025.27
2023-02-04T04:41:26.436Z,1025.28
2023-02-04T04:42:26.430Z,1025.27
2023-02-04T04:43:26.442Z,1025.25
2023-02-04T04:44:26.406Z,1025.30
2023-02-04T04:45:26.411Z,1025.28
2023-02-04T04:46:26.397Z,1025.31
2023-02-04T04:47:26.378Z,1025.30
2023-02-04T04:48:26.374Z,1025.31
2023-02-04T04:49:26.372Z,1025.30
2023-02-04T04:50:26.353Z,1025.29
2023-02-04T04:51:26.346Z,1025.31
2023-02-04T04:52:26.344Z,1025.29
2023-02-04T04:53:26.331Z,1025.31
2023-02-04T04:54:26.324Z,1025.34
2023-02-04T04:55:26.322Z,1025.34
2023-02-04T04:56:26.320Z,1025.36
2023-02-04T04:57:26.301Z,1025.40
2023-02-04T04:58:26.285Z,1025.46
2023-02-04T04:59:26.282Z,1025.43
2023-02-04T05:00:26.268Z,1025.43
2023-02-04T05:01:26.263Z,1025.46
2023-02-04T05:02:26.260Z,1025.45
2023-02-04T05:03:26.266Z,1025.51
2023-02-04T05:04:26.300Z,1025.55
2023-02-04T05:05:26.240Z,1025.54
2023-02-04T05:06:26.233Z,1025.59
2023-02-04T05:07:26.224Z,1025.56
2023-02-04T05:08:26.210Z,1025.55
2023-02-04T05:09:26.203Z,1025.53
2023-02-04T05:10:26.198Z,1025.56
2023-02-04T05:11:26.208Z,1025.58
2023-02-04T05:12:26.193Z,1025.57
2023-02-04T05:13:26.183Z,1025.61
2023-02-04T05:14:26.179Z,1025.61
2023-02-04T05:15:26.158Z,1025.61
2023-02-04T05:16:26.201Z,1025.66
2023-02-04T05:17:28.423Z,1025.69
2023-02-04T05:18:26.134Z,1025.69
2023-02-04T05:19:26.125Z,1025.68
2023-02-04T05:20:26.140Z,1025.68
2023-02-04T05:21:26.107Z,1025.72
2023-02-04T05:22:26.103Z,1025.62
2023-02-04T05:23:26.095Z,1025.65
2023-02-04T05:24:26.092Z,1025.62
2023-02-04T05:25:26.073Z,1025.66
2023-02-04T05:26:30.786Z,1025.67
2023-02-04T05:27:26.059Z,1025.72
2023-02-04T05:28:26.053Z,1025.76
2023-02-04T05:29:26.050Z,1025.72
2023-02-04T05:30:26.144Z,1025.77
2023-02-04T05:31:26.046Z,1025.76
2023-02-04T05:32:26.028Z,1025.73
2023-02-04T05:33:26.016Z,1025.69
2023-02-04T05:34:26.006Z,1025.67
2023-02-04T05:35:25.992Z,1025.63
2023-02-04T05:36:26.000Z,1025.61
2023-02-04T05:37:25.979Z,1025.60
2023-02-04T05:38:25.972Z,1025.64
2023-02-04T05:39:25.958Z,1025.68
2023-02-04T05:40:25.956Z,1025.71
2023-02-04T05:41:25.944Z,1025.76
2023-02-04T05:42:25.954Z,1025.76
2023-02-04T05:43:25.926Z,1025.81
2023-02-04T05:44:27.474Z,1025.82
2023-02-04T05:45:25.942Z,1025.83
2023-02-04T05:46:25.904Z,1025.86
2023-02-04T05:47:25.888Z,1025.83
2023-02-04T05:48:25.889Z,1025.88
2023-02-04T05:49:25.893Z,1025.88
2023-02-04T05:50:25.866Z,1025.88
2023-02-04T05:51:25.862Z,1025.86
2023-02-04T05:52:25.853Z,1025.88
2023-02-04T05:53:26.255Z,1025.91
2023-02-04T05:54:25.833Z,1025.95
2023-02-04T05:55:25.830Z,1025.98
2023-02-04T05:56:25.821Z,1025.95
2023-02-04T05:57:25.808Z,1025.92
2023-02-04T05:58:25.809Z,1026.00
2023-02-04T05:59:25.793Z,1025.95
2023-02-04T06:00:25.794Z,1025.97
2023-02-04T06:01:25.775Z,1025.95
2023-02-04T06:02:25.767Z,1025.96
2023-02-04T06:03:25.818Z,1025.97
2023-02-04T06:04:25.843Z,1026.00
2023-02-04T06:05:25.742Z,1026.06
2023-02-04T06:06:25.734Z,1026.05
2023-02-04T06:07:25.722Z,1026.11
2023-02-04T06:08:25.711Z,1026.07
2023-02-04T06:09:25.715Z,1026.11
2023-02-04T06:10:25.697Z,1026.10
2023-02-04T06:11:25.698Z,1026.10
2023-02-04T06:12:25.682Z,1026.06
2023-02-04T06:13:25.681Z,1026.06
2023-02-04T06:14:25.682Z,1026.08
2023-02-04T06:15:25.659Z,1026.05
2023-02-04T06:16:25.714Z,1026.07
2023-02-04T06:17:25.643Z,1026.12
2023-02-04T06:18:25.637Z,1026.15
2023-02-04T06:19:25.621Z,1026.24
2023-02-04T06:20:25.627Z,1026.21
2023-02-04T06:21:25.615Z,1026.26
2023-02-04T06:22:25.604Z,1026.27
2023-02-04T06:23:25.592Z,1026.24
2023-02-04T06:24:25.596Z,1026.24
2023-02-04T06:25:25.577Z,1026.27
2023-02-04T06:26:25.564Z,1026.25
2023-02-04T06:27:25.555Z,1026.24
2023-02-04T06:28:25.563Z,1026.27
2023-02-04T06:29:25.537Z,1026.24
2023-02-04T06:30:25.542Z,1026.24
2023-02-04T06:31:25.643Z,1026.26
2023-02-04T06:32:25.522Z,1026.30
2023-02-04T06:33:25.521Z,1026.32
2023-02-04T06:34:25.504Z,1026.29
2023-02-04T06:35:25.493Z,1026.29
2023-02-04T06:36:25.481Z,1026.29
2023-02-04T06:37:25.486Z,1026.30
2023-02-04T06:38:25.467Z,1026.33
2023-02-04T06:39:25.464Z,1026.32
2023-02-04T06:40:25.460Z,1026.35
2023-02-04T06:41:25.447Z,1026.40
2023-02-04T06:42:25.444Z,1026.39
2023-02-04T06:43:25.459Z,1026.37
2023-02-04T06:44:25.418Z,1026.33
2023-02-04T06:45:25.413Z,1026.31
2023-02-04T06:46:25.468Z,1026.32
2023-02-04T06:47:25.394Z,1026.34
2023-02-04T06:48:25.390Z,1026.40
2023-02-04T06:49:25.388Z,1026.40
2023-02-04T06:50:25.368Z,1026.36
2023-02-04T06:51:25.369Z,1026.31
2023-02-04T06:52:25.348Z,1026.38
2023-02-04T06:53:25.348Z,1026.39
2023-02-04T06:54:25.332Z,1026.41
2023-02-04T06:55:25.331Z,1026.45
2023-02-04T06:56:25.326Z,1026.49
2023-02-04T06:57:25.321Z,1026.48
2023-02-04T06:58:25.299Z,1026.48
2023-02-04T06:59:25.298Z,1026.58
2023-02-04T07:00:25.294Z,1026.49
2023-02-04T07:01:25.331Z,1026.51
2023-02-04T07:02:25.325Z,1026.55
2023-02-04T07:03:25.268Z,1026.58
2023-02-04T07:04:25.266Z,1026.56
2023-02-04T07:05:25.292Z,1026.53
2023-02-04T07:06:25.230Z,1026.57
2023-02-04T07:07:25.250Z,1026.55
2023-02-04T07:08:25.226Z,1026.55
2023-02-04T07:09:25.226Z,1026.59
2023-02-04T07:10:25.234Z,1026.59
2023-02-04T07:11:25.207Z,1026.59
2023-02-04T07:12:25.189Z,1026.59
2023-02-04T07:13:25.190Z,1026.58
2023-02-04T07:14:25.170Z,1026.63
2023-02-04T07:15:25.162Z,1026.59
2023-02-04T07:16:25.151Z,1026.68
2023-02-04T07:17:25.140Z,1026.66
2023-02-04T07:18:25.133Z,1026.67
2023-02-04T07:19:25.134Z,1026.67
2023-02-04T07:20:25.124Z,1026.68
2023-02-04T07:21:25.104Z,1026.67
2023-02-04T07:22:25.105Z,1026.69
2023-02-04T07:23:25.098Z,1026.69
2023-02-04T07:24:25.113Z,1026.73
2023-02-04T07:25:25.076Z,1026.76
2023-02-04T07:26:25.075Z,1026.73
2023-02-04T07:27:25.060Z,1026.77
2023-02-04T07:28:25.051Z,1026.83
2023-02-04T07:29:25.960Z,1026.81
2023-02-04T07:30:25.047Z,1026.79
2023-02-04T07:31:25.159Z,1026.84
2023-02-04T07:32:25.018Z,1026.81
2023-02-04T07:33:25.008Z,1026.85
2023-02-04T07:34:25.012Z,1026.85
2023-02-04T07:35:24.989Z,1026.89
2023-02-04T07:36:25.027Z,1026.82
2023-02-04T07:37:24.973Z,1026.86
2023-02-04T07:38:24.963Z,1026.88
2023-02-04T07:39:24.958Z,1026.91
2023-02-04T07:40:24.945Z,1026.91
2023-02-04T07:41:24.936Z,1026.88
2023-02-04T07:42:24.932Z,1026.89
2023-02-04T07:43:24.924Z,1026.90
2023-02-04T07:44:24.911Z,1026.93
2023-02-04T07:45:24.901Z,1026.95
2023-02-04T07:46:24.969Z,1026.98
2023-02-04T07:47:24.886Z,1026.97
2023-02-04T07:48:24.873Z,1026.97
2023-02-04T07:49:24.868Z,1027.00
2023-02-04T07:50:24.852Z,1026.99
2023-02-04T07:51:26.042Z,1027.01
2023-02-04T07:52:24.848Z,1027.01
2023-02-04T07:53:24.840Z,1027.01
2023-02-04T07:54:24.830Z,1027.03
2023-02-04T07:55:24.820Z,1027.08
2023-02-04T07:56:24.810Z,1027.11
2023-02-04T07:57:24.808Z,1027.14
2023-02-04T07:58:24.789Z,1027.12
2023-02-04T07:59:24.794Z,1027.14
2023-02-04T08:00:24.779Z,1027.12
2023-02-04T08:01:24.793Z,1027.18
2023-02-04T08:02:24.772Z,1027.20
2023-02-04T08:03:24.749Z,1027.18
2023-02-04T08:04:24.743Z,1027.21
2023-02-04T08:05:24.731Z,1027.23
2023-02-04T08:06:24.720Z,1027.24
2023-02-04T08:07:24.717Z,1027.25
2023-02-04T08:08:24.704Z,1027.19
2023-02-04T08:09:24.697Z,1027.17
2023-02-04T08:10:24.689Z,1027.23
2023-02-04T08:11:24.693Z,1027.24
2023-02-04T08:12:24.676Z,1027.24
2023-02-04T08:13:24.660Z,1027.26
2023-02-04T08:14:24.660Z,1027.26
2023-02-04T08:15:24.646Z,1027.27
2023-02-04T08:16:24.702Z,1027.28
2023-02-04T08:17:24.628Z,1027.26
2023-02-04T08:18:24.622Z,1027.30
2023-02-04T08:19:24.621Z,1027.28
2023-02-04T08:20:24.620Z,1027.28
2023-02-04T08:21:24.593Z,1027.34
2023-02-04T08:22:24.594Z,1027.31
2023-02-04T08:23:24.578Z,1027.35
2023-02-04T08:24:24.579Z,1027.34
2023-02-04T08:25:24.567Z,1027.35
2023-02-04T08:26:24.556Z,1027.36
2023-02-04T08:27:24.546Z,1027.38
2023-02-04T08:28:24.541Z,1027.36
2023-02-04T08:29:24.526Z,1027.33
2023-02-04T08:30:24.517Z,1027.30
2023-02-04T08:31:24.645Z,1027.36
2023-02-04T08:32:24.502Z,1027.33
2023-02-04T08:33:24.496Z,1027.27
2023-02-04T08:34:24.485Z,1027.32
2023-02-04T08:35:24.479Z,1027.37
2023-02-04T08:36:24.471Z,1027.34
2023-02-04T08:37:24.457Z,1027.33
2023-02-04T08:38:24.457Z,1027.36
2023-02-04T08:39:24.441Z,1027.37
2023-02-04T08:40:24.458Z,1027.38
2023-02-04T08:41:24.437Z,1027.37
2023-02-04T08:42:24.417Z,1027.43
2023-02-04T08:43:24.407Z,1027.42
2023-02-04T08:44:24.409Z,1027.45
2023-02-04T08:45:24.396Z,1027.48
2023-02-04T08:46:24.427Z,1027.47
2023-02-04T08:47:24.386Z,1027.43
2023-02-04T08:48:24.385Z,1027.43
2023-02-04T08:49:24.379Z,1027.51
2023-02-04T08:50:24.367Z,1027.51
2023-02-04T08:51:24.365Z,1027.45
2023-02-04T08:52:24.363Z,1027.51
2023-02-04T08:53:24.359Z,1027.51
2023-02-04T08:54:24.341Z,1027.47
2023-02-04T08:55:24.334Z,1027.53
2023-02-04T08:56:24.317Z,1027.49
2023-02-04T08:57:24.322Z,1027.52
2023-02-04T08:58:24.308Z,1027.53
2023-02-04T08:59:24.306Z,1027.55
2023-02-04T09:00:24.343Z,1027.56
2023-02-04T09:01:24.333Z,1027.57
2023-02-04T09:02:24.336Z,1027.58
2023-02-04T09:03:24.279Z,1027.64
2023-02-04T09:04:24.267Z,1027.66
2023-02-04T09:05:24.260Z,1027.69
2023-02-04T09:06:24.254Z,1027.72
2023-02-04T09:07:24.247Z,1027.71
2023-02-04T09:08:24.245Z,1027.72
2023-02-04T09:09:26.204Z,1027.75
2023-02-04T09:10:24.252Z,1027.73
2023-02-04T09:11:24.213Z,1027.78
2023-02-04T09:12:24.204Z,1027.78
2023-02-04T09:13:24.193Z,1027.81
2023-02-04T09:14:24.188Z,1027.81
2023-02-04T09:15:24.183Z,1027.81
2023-02-04T09:16:24.230Z,1027.78
2023-02-04T09:17:24.174Z,1027.79
2023-02-04T09:18:24.162Z,1027.75
2023-02-04T09:19:24.176Z,1027.78
2023-02-04T09:20:24.182Z,1027.76
2023-02-04T09:21:24.132Z,1027.77
2023-02-04T09:22:24.129Z,1027.79
2023-02-04T09:23:24.131Z,1027.78
2023-02-04T09:24:24.116Z,1027.80
2023-02-04T09:25:24.104Z,1027.79
2023-02-04T09:26:24.108Z,1027.84
2023-02-04T09:27:24.095Z,1027.90
2023-02-04T09:28:24.084Z,1027.89
2023-02-04T09:29:24.072Z,1027.88
2023-02-04T09:30:24.066Z,1027.92
2023-02-04T09:31:24.153Z,1027.95
2023-02-04T09:32:24.055Z,1027.87
2023-02-04T09:33:24.050Z,1027.93
2023-02-04T09:34:24.041Z,1027.99
2023-02-04T09:35:24.028Z,1027.96
2023-02-04T09:36:24.025Z,1027.96
2023-02-04T09:37:24.010Z,1027.99
2023-02-04T09:38:24.003Z,1027.97
2023-02-04T09:39:23.990Z,1027.97
2023-02-04T09:40:23.992Z,1027.98
2023-02-04T09:41:23.980Z,1028.02
2023-02-04T09:42:23.976Z,1028.06
2023-02-04T09:43:23.966Z,1028.05
2023-02-04T09:44:23.961Z,1028.05
2023-02-04T09:45:23.963Z,1028.06
2023-02-04T09:46:23.945Z,1028.07
2023-02-04T09:47:23.976Z,1028.08
2023-02-04T09:48:23.938Z,1028.11
2023-02-04T09:49:23.932Z,1028.11
2023-02-04T09:50:23.915Z,1028.11
2023-02-04T09:51:23.912Z,1028.13
2023-02-04T09:52:23.902Z,1028.12
2023-02-04T09:53:23.885Z,1028.14
2023-02-04T09:54:23.877Z,1028.14
2023-02-04T09:55:23.871Z,1028.13
2023-02-04T09:56:23.857Z,1028.18
2023-02-04T09:57:23.848Z,1028.20
2023-02-04T09:58:23.848Z,1028.22
2023-02-04T09:59:23.836Z,1028.25
2023-02-04T10:00:23.822Z,1028.25
2023-02-04T10:01:23.863Z,1028.29
2023-02-04T10:02:23.802Z,1028.29
2023-02-04T10:03:23.824Z,1028.29
2023-02-04T10:04:23.784Z,1028.29
2023-02-04T10:05:23.791Z,1028.32
2023-02-04T10:06:23.784Z,1028.27
2023-02-04T10:07:23.769Z,1028.36
2023-02-04T10:08:23.761Z,1028.32
2023-02-04T10:09:23.748Z,1028.34
2023-02-04T10:10:23.741Z,1028.33
2023-02-04T10:11:23.732Z,1028.35
2023-02-04T10:12:23.725Z,1028.41
2023-02-04T10:13:23.713Z,1028.40
2023-02-04T10:14:23.708Z,1028.39
2023-02-04T10:15:23.693Z,1028.40
2023-02-04T10:16:23.751Z,1028.36
2023-02-04T10:17:23.695Z,1028.36
2023-02-04T10:18:23.689Z,1028.33
2023-02-04T10:19:23.676Z,1028.34
2023-02-04T10:20:23.664Z,1028.32
2023-02-04T10:21:23.653Z,1028.33
2023-02-04T10:22:23.690Z,1028.35
2023-02-04T10:23:23.642Z,1028.30
2023-02-04T10:24:23.631Z,1028.33
2023-02-04T10:25:23.625Z,1028.33
2023-02-04T10:26:23.621Z,1028.32
2023-02-04T10:27:23.613Z,1028.33
2023-02-04T10:28:23.611Z,1028.30
2023-02-04T10:29:23.590Z,1028.27
2023-02-04T10:30:23.612Z,1028.31
2023-02-04T10:31:23.666Z,1028.33
2023-02-04T10:32:23.578Z,1028.37
2023-02-04T10:33:23.577Z,1028.43
2023-02-04T10:34:23.574Z,1028.42
2023-02-04T10:35:23.556Z,1028.38
2023-02-04T10:36:23.565Z,1028.41
2023-02-04T10:37:23.542Z,1028.42
2023-02-04T10:38:23.545Z,1028.38
2023-02-04T10:39:23.549Z,1028.37
2023-02-04T10:40:23.524Z,1028.34
2023-02-04T10:41:23.516Z,1028.35
2023-02-04T10:42:23.514Z,1028.34
2023-02-04T10:43:23.512Z,1028.36
2023-02-04T10:44:23.508Z,1028.34
2023-02-04T10:45:23.487Z,1028.30
2023-02-04T10:46:23.506Z,1028.35
2023-02-04T10:47:23.475Z,1028.35
2023-02-04T10:48:23.483Z,1028.32
2023-02-04T10:49:23.478Z,1028.34
2023-02-04T10:50:23.461Z,1028.35
2023-02-04T10:51:23.459Z,1028.34
2023-02-04T10:52:23.440Z,1028.36
2023-02-04T10:53:23.438Z,1028.38
2023-02-04T10:54:23.428Z,1028.38
2023-02-04T10:55:23.439Z,1028.42
2023-02-04T10:56:23.424Z,1028.42
2023-02-04T10:57:23.408Z,1028.38
2023-02-04T10:58:23.398Z,1028.39
2023-02-04T10:59:23.399Z,1028.39
2023-02-04T11:00:23.391Z,1028.41
2023-02-04T11:01:23.390Z,1028.42
2023-02-04T11:02:23.376Z,1028.44
2023-02-04T11:03:23.503Z,1028.43
2023-02-04T11:04:23.368Z,1028.43
2023-02-04T11:05:23.353Z,1028.41
2023-02-04T11:06:23.345Z,1028.42
2023-02-04T11:07:23.351Z,1028.41
2023-02-04T11:08:23.335Z,1028.42
2023-02-04T11:09:23.327Z,1028.43
2023-02-04T11:10:23.324Z,1028.35
2023-02-04T11:11:23.319Z,1028.34
2023-02-04T11:12:23.311Z,1028.34
2023-02-04T11:13:23.301Z,1028.34
2023-02-04T11:14:23.294Z,1028.34
2023-02-04T11:15:23.284Z,1028.35
2023-02-04T11:16:23.432Z,1028.32
2023-02-04T11:17:23.277Z,1028.34
2023-02-04T11:18:23.274Z,1028.32
2023-02-04T11:19:23.261Z,1028.34
2023-02-04T11:20:23.253Z,1028.34
2023-02-04T11:21:23.255Z,1028.34
2023-02-04T11:22:23.245Z,1028.38
2023-02-04T11:23:23.233Z,1028.40
2023-02-04T11:24:23.244Z,1028.38
2023-02-04T11:25:23.219Z,1028.43
2023-02-04T11:26:23.215Z,1028.42
2023-02-04T11:27:23.221Z,1028.41
2023-02-04T11:28:23.201Z,1028.38
2023-02-04T11:29:23.197Z,1028.40
2023-02-04T11:30:23.188Z,1028.40
2023-02-04T11:31:23.286Z,1028.37
2023-02-04T11:32:23.166Z,1028.38
2023-02-04T11:33:23.162Z,1028.41
2023-02-04T11:34:23.156Z,1028.39
2023-02-04T11:35:23.152Z,1028.43
2023-02-04T11:36:23.155Z,1028.41
2023-02-04T11:37:23.164Z,1028.42
2023-02-04T11:38:23.135Z,1028.43
2023-02-04T11:39:23.124Z,1028.40
2023-02-04T11:40:23.121Z,1028.37
2023-02-04T11:41:23.113Z,1028.38
2023-02-04T11:42:23.118Z,1028.38
2023-02-04T11:43:23.098Z,1028.37
2023-02-04T11:44:23.098Z,1028.38
2023-02-04T11:45:23.081Z,1028.38
2023-02-04T11:46:23.089Z,1028.37
2023-02-04T11:47:23.068Z,1028.36
2023-02-04T11:48:23.071Z,1028.34
2023-02-04T11:49:23.054Z,1028.38
2023-02-04T11:50:23.040Z,1028.39
2023-02-04T11:51:23.035Z,1028.42
2023-02-04T11:52:23.039Z,1028.38
2023-02-04T11:53:23.025Z,1028.44
2023-02-04T11:54:23.020Z,1028.44
2023-02-04T11:55:23.014Z,1028.39
2023-02-04T11:56:23.012Z,1028.37
2023-02-04T11:57:23.000Z,1028.38
2023-02-04T11:58:23.000Z,1028.34
2023-02-04T11:59:22.985Z,1028.35
2023-02-04T12:00:22.987Z,1028.39
2023-02-04T12:01:22.972Z,1028.36
2023-02-04T12:02:22.981Z,1028.41
2023-02-04T12:03:23.010Z,1028.41
2023-02-04T12:04:22.954Z,1028.36
2023-02-04T12:05:22.942Z,1028.38